Time;durP1;ratioP1;P1;durP2;ratioP2;P2;SDS_P1;SDS_P2;PMS_P1;PMS_P2;Temp;Humidity;BMP_temperature;BMP_pressure;BME280_temperature;BME280_humidity;BME280_pressure;Samples;Min_cycle;Max_cycle;Signal;HPM_P1;HPM_P2
2023/01/12 00:01:58;;;;;;;4.82;4.40;;;;;;;7.64;100.00;100600.72;6128280;23;20305;-68
2023/01/12 00:04:24;;;;;;;5.38;4.43;;;;;;;8.27;100.00;100680.81;6135309;23;20115;-67
2023/01/12 00:06:51;;;;;;;8.23;5.13;;;;;;;8.26;100.00;100727.03;6129094;23;20029;-67
2023/01/12 00:09:17;;;;;;;4.47;4.18;;;;;;;8.33;100.00;100706.69;6160017;23;20095;-67
2023/01/12 00:11:44;;;;;;;4.40;4.05;;;;;;;7.97;100.00;100662.91;6139445;23;20024;-69
2023/01/12 00:14:10;;;;;;;4.90;4.35;;;;;;;8.26;100.00;100697.41;6105211;23;20384;-68
2023/01/12 00:16:40;;;;;;;7.53;4.13;;;;;;;8.31;100.00;100685.00;6162754;23;20039;-69
2023/01/12 00:19:14;;;;;;;4.50;4.20;;;;;;;8.45;100.00;100723.66;6119271;23;20038;-69
2023/01/12 00:22:09;;;;;;;4.40;4.20;;;;;;;8.37;100.00;100727.41;6137276;23;20040;-68
2023/01/12 00:24:44;;;;;;;6.68;4.10;;;;;;;8.36;100.00;100720.50;6134732;23;20028;-68
2023/01/12 00:27:22;;;;;;;5.55;4.60;;;;;;;8.41;100.00;100724.69;6106828;23;20171;-69
2023/01/12 00:29:49;;;;;;;5.20;4.93;;;;;;;8.25;100.00;100707.03;6138173;23;20033;-68
2023/01/12 00:32:18;;;;;;;4.28;4.07;;;;;;;8.35;100.00;100731.84;6138083;23;20017;-68
2023/01/12 00:34:44;;;;;;;4.40;4.20;;;;;;;8.33;100.00;100733.69;6139120;23;20017;-68
2023/01/12 00:37:12;;;;;;;5.53;4.35;;;;;;;8.35;100.00;100734.47;6136687;23;20056;-69
2023/01/12 00:39:38;;;;;;;4.63;4.38;;;;;;;7.33;100.00;100567.16;6117525;23;20037;-68
2023/01/12 00:47:41;;;;;;;15.38;4.28;;;;;;;8.19;100.00;100699.44;6164692;23;20029;-69
2023/01/12 00:50:08;;;;;;;4.75;4.35;;;;;;;7.84;100.00;100686.09;6138438;23;20033;-69
2023/01/12 00:52:37;;;;;;;7.80;4.15;;;;;;;7.87;100.00;100670.28;6137191;23;20291;-69
2023/01/12 00:55:04;;;;;;;5.28;4.97;;;;;;;7.33;100.00;100570.63;6137145;23;20033;-69
2023/01/12 00:57:30;;;;;;;4.25;4.05;;;;;;;8.03;100.00;100696.63;6141031;23;20025;-69
2023/01/12 01:00:07;;;;;;;4.00;3.83;;;;;;;7.73;100.00;100636.03;6160426;23;20037;-68
2023/01/12 01:02:36;;;;;;;4.00;3.80;;;;;;;8.27;100.00;100718.25;6119878;23;20383;-68
2023/01/12 01:05:03;;;;;;;4.60;4.20;;;;;;;7.86;100.00;100670.31;6145336;23;20012;-69
2023/01/12 01:07:30;;;;;;;6.68;4.00;;;;;;;8.23;100.00;100711.47;6118813;23;20025;-68
2023/01/12 01:09:56;;;;;;;4.15;3.95;;;;;;;8.17;100.00;100696.03;6168042;23;20033;-68
2023/01/12 01:12:23;;;;;;;4.57;4.38;;;;;;;7.66;100.00;100611.06;6117070;23;20145;-68
2023/01/12 01:14:49;;;;;;;4.50;4.10;;;;;;;8.23;100.00;100711.47;6169618;23;20606;-68
2023/01/12 01:17:15;;;;;;;4.78;4.38;;;;;;;8.22;100.00;100720.25;6142288;23;20091;-68
2023/01/12 01:19:42;;;;;;;7.80;4.00;;;;;;;8.27;100.00;100717.41;6176796;23;20595;-68
2023/01/12 01:22:09;;;;;;;4.50;4.20;;;;;;;8.09;100.00;100698.97;6121722;23;20013;-69
2023/01/12 01:24:36;;;;;;;4.10;3.80;;;;;;;8.22;100.00;100720.25;6145406;23;20020;-68
2023/01/12 01:27:02;;;;;;;4.55;4.35;;;;;;;8.23;100.00;100729.75;6115124;23;20018;-68
2023/01/12 01:29:29;;;;;;;5.18;4.75;;;;;;;8.23;100.00;100732.38;6167003;23;20033;-68
2023/01/12 01:31:56;;;;;;;4.72;4.43;;;;;;;7.94;100.00;100669.13;6140315;23;20569;-67
2023/01/12 01:35:09;;;;;;;12.52;11.52;;;;;;;8.01;100.00;100708.91;6128474;23;20017;-68
2023/01/12 01:38:08;;;;;;;10.10;4.43;;;;;;;8.02;100.00;100684.47;6136817;23;20220;-69
2023/01/12 01:40:42;;;;;;;4.70;4.40;;;;;;;8.14;100.00;100709.25;6138803;23;20028;-68
2023/01/12 01:43:13;;;;;;;5.10;4.28;;;;;;;8.18;100.00;100721.28;6140185;23;20030;-68
2023/01/12 01:45:41;;;;;;;4.55;4.22;;;;;;;8.26;100.00;100713.09;6142379;23;20021;-67
2023/01/12 01:48:12;;;;;;;4.50;4.30;;;;;;;8.23;100.00;100724.53;6138718;23;20031;-67
2023/01/12 01:50:43;;;;;;;7.20;4.43;;;;;;;7.57;100.00;100615.75;6138797;23;20061;-68
2023/01/12 01:53:13;;;;;;;7.68;4.93;;;;;;;7.78;100.00;100628.88;6139004;23;20497;-68
2023/01/12 01:55:49;;;;;;;5.72;4.85;;;;;;;8.22;100.00;100709.78;6137396;23;20022;-67
2023/01/12 01:58:21;;;;;;;4.82;4.63;;;;;;;8.25;100.00;100711.41;6138087;23;20032;-69
2023/01/12 02:00:48;;;;;;;4.03;3.83;;;;;;;8.10;100.00;100676.31;6164399;23;20084;-68
2023/01/12 02:03:16;;;;;;;4.53;4.32;;;;;;;7.93;100.00;100635.19;6111427;23;20372;-68
2023/01/12 02:05:47;;;;;;;5.95;5.45;;;;;;;8.06;100.00;100680.81;6133498;23;20459;-68
2023/01/12 02:08:43;;;;;;;4.82;4.43;;;;;;;8.23;100.00;100676.63;6162908;23;20395;-66
2023/01/12 02:16:19;;;;;;;4.00;3.80;;;;;;;8.26;100.00;100677.38;6135099;23;20091;-68
2023/01/12 02:17:01;;;;;;;11.43;4.43;;;;;;;8.07;100.00;100637.22;6142355;23;20455;-68
2023/01/12 02:19:54;;;;;;;6.68;3.92;;;;;;;8.29;100.00;100673.75;6129075;23;20033;-68
2023/01/12 02:22:35;;;;;;;6.05;4.72;;;;;;;8.33;100.00;100668.31;6168700;23;20559;-68
2023/01/12 02:25:15;;;;;;;4.20;4.00;;;;;;;8.30;100.00;100658.00;6140909;23;20024;-68
2023/01/12 02:28:16;;;;;;;4.00;3.75;;;;;;;8.39;100.00;100670.66;6139803;23;20037;-68
2023/01/12 02:31:01;;;;;;;4.70;4.30;;;;;;;8.38;100.00;100673.38;6141370;23;20021;-68
2023/01/12 02:33:42;;;;;;;5.30;4.30;;;;;;;8.40;100.00;100676.78;6141341;23;20704;-68
2023/01/12 02:36:38;;;;;;;11.25;4.07;;;;;;;8.45;100.00;100674.81;6159611;23;20025;-67
2023/01/12 02:39:23;;;;;;;4.93;4.53;;;;;;;8.45;100.00;100666.97;6118213;23;20598;-68
2023/01/12 02:45:23;;;;;;;4.40;4.10;;;;;;;8.35;100.00;100632.50;6119376;23;20009;-68
2023/01/12 02:48:21;;;;;;;4.10;3.90;;;;;;;8.50;100.00;100658.91;6171298;23;20013;-69
2023/01/12 02:50:57;;;;;;;3.78;3.65;;;;;;;7.94;100.00;100554.13;6140114;23;20076;-68
2023/01/12 02:53:30;;;;;;;4.63;4.10;;;;;;;8.57;100.00;100663.81;6148017;23;20046;-69
2023/01/12 02:56:06;;;;;;;5.95;5.13;;;;;;;8.54;100.00;100665.75;6157802;23;20009;-68
2023/01/12 02:58:36;;;;;;;4.55;4.35;;;;;;;8.25;100.00;100602.44;6166044;23;20048;-68
2023/01/12 03:01:04;;;;;;;7.75;4.35;;;;;;;8.50;100.00;100640.59;6120010;23;20026;-67
2023/01/12 03:03:34;;;;;;;4.15;3.95;;;;;;;8.27;100.00;100615.44;6171105;23;20009;-67
2023/01/12 03:06:00;;;;;;;4.85;4.20;;;;;;;7.73;100.00;100536.78;6139776;23;20058;-67
2023/01/12 03:08:29;;;;;;;3.67;3.58;;;;;;;8.28;100.00;100622.38;6139463;23;20562;-68
2023/01/12 03:11:13;;;;;;;4.28;3.97;;;;;;;7.86;100.00;100556.22;6142676;23;20040;-67
2023/01/12 03:13:48;;;;;;;5.88;4.15;;;;;;;7.72;100.00;100527.25;6169603;23;20036;-68
2023/01/12 03:16:19;;;;;;;6.03;5.63;;;;;;;8.31;100.00;100606.56;6111256;23;20016;-68
2023/01/12 03:19:10;;;;;;;5.82;4.60;;;;;;;7.10;100.00;100409.75;6162446;23;20580;-67
2023/01/12 03:21:58;;;;;;;4.10;3.85;;;;;;;8.18;100.00;100587.97;6122276;23;20033;-68
2023/01/12 03:24:28;;;;;;;4.45;4.25;;;;;;;7.80;100.00;100538.22;6172877;23;20024;-68
2023/01/12 03:27:02;;;;;;;4.05;3.85;;;;;;;8.17;100.00;100596.72;6122705;23;20016;-67
2023/01/12 03:29:34;;;;;;;4.68;4.28;;;;;;;8.18;100.00;100598.41;6157148;23;20020;-67
2023/01/12 03:32:02;;;;;;;3.88;3.72;;;;;;;8.18;100.00;100593.19;6143128;23;20019;-67
2023/01/12 03:34:30;;;;;;;14.27;4.13;;;;;;;8.10;100.00;100580.44;6174448;23;20027;-67
2023/01/12 03:37:15;;;;;;;3.85;3.63;;;;;;;8.17;100.00;100584.47;6139829;23;20032;-67
2023/01/12 03:39:51;;;;;;;4.90;4.35;;;;;;;8.22;100.00;100596.50;6136829;23;20099;-68
2023/01/12 03:42:32;;;;;;;4.45;4.25;;;;;;;8.12;100.00;100578.63;6142005;23;20085;-67
2023/01/12 03:45:18;;;;;;;4.50;4.00;;;;;;;8.22;100.00;100575.59;6140235;23;20028;-68
2023/01/12 03:47:50;;;;;;;4.07;3.88;;;;;;;8.30;100.00;100584.81;6170591;23;20028;-67
2023/01/12 03:50:23;;;;;;;4.03;3.83;;;;;;;7.86;100.00;100513.56;6135101;23;20539;-67
2023/01/12 03:52:52;;;;;;;5.00;4.03;;;;;;;8.09;100.00;100549.16;6170292;23;20055;-68
2023/01/12 03:55:22;;;;;;;4.93;4.63;;;;;;;8.15;100.00;100554.09;6113236;23;20474;-67
2023/01/12 03:57:53;;;;;;;4.68;4.30;;;;;;;8.29;100.00;100592.69;6172236;23;20016;-69
2023/01/12 04:00:21;;;;;;;4.47;4.28;;;;;;;8.32;100.00;100576.91;6118843;23;20034;-67
2023/01/12 04:02:47;;;;;;;6.35;3.80;;;;;;;8.34;100.00;100573.28;6148174;23;20013;-68
2023/01/12 04:05:14;;;;;;;4.00;3.80;;;;;;;8.16;100.00;100546.19;6090274;23;20017;-68
2023/01/12 04:07:41;;;;;;;4.15;3.95;;;;;;;8.36;100.00;100574.06;6169332;23;20065;-67
2023/01/12 04:10:08;;;;;;;5.13;4.20;;;;;;;8.37;100.00;100572.28;6145612;23;20027;-67
2023/01/12 04:12:34;;;;;;;4.40;4.00;;;;;;;8.39;100.00;100578.31;6142702;23;20018;-68
2023/01/12 04:15:01;;;;;;;5.65;4.13;;;;;;;8.05;100.00;100509.22;6175851;23;20026;-68
2023/01/12 04:17:28;;;;;;;4.45;4.15;;;;;;;8.09;100.00;100502.09;6097859;23;20137;-67
2023/01/12 04:19:54;;;;;;;5.00;4.43;;;;;;;8.51;100.00;100556.00;6162029;23;20056;-68
2023/01/12 04:25:06;;;;;;;3.90;3.70;;;;;;;8.28;100.00;100530.84;6166098;23;20012;-68
2023/01/12 04:27:35;;;;;;;3.60;3.40;;;;;;;7.96;100.00;100471.31;6124728;23;20519;-67
2023/01/12 04:30:02;;;;;;;4.55;4.25;;;;;;;8.46;100.00;100561.47;6155549;23;20072;-68
2023/01/12 04:32:28;;;;;;;4.45;3.90;;;;;;;8.37;100.00;100538.31;6140590;23;20017;-68
2023/01/12 04:34:55;;;;;;;4.20;3.85;;;;;;;8.50;100.00;100562.13;6165578;23;20413;-68
2023/01/12 04:37:21;;;;;;;4.53;3.83;;;;;;;7.67;100.00;100419.50;6134096;23;20021;-68
2023/01/12 04:39:48;;;;;;;4.03;3.83;;;;;;;8.09;100.00;100483.81;6119732;23;20108;-69
2023/01/12 04:45:00;;;;;;;4.75;4.05;;;;;;;8.34;100.00;100531.44;6133666;23;20458;-68
2023/01/12 04:47:29;;;;;;;4.85;3.78;;;;;;;8.35;100.00;100509.59;6170423;23;20051;-67
2023/01/12 04:49:56;;;;;;;4.07;3.78;;;;;;;8.11;100.00;100482.81;6138949;23;20094;-67
2023/01/12 04:52:25;;;;;;;6.28;4.20;;;;;;;8.24;100.00;100506.66;6138402;23;20032;-67
2023/01/12 04:54:52;;;;;;;7.07;3.60;;;;;;;8.30;100.00;100500.25;6133297;23;20503;-67
2023/01/12 04:57:20;;;;;;;5.35;4.40;;;;;;;8.17;100.00;100469.47;6167105;23;20037;-67
2023/01/12 04:59:46;;;;;;;3.80;3.65;;;;;;;8.11;100.00;100458.44;6136348;23;20060;-67
2023/01/12 05:02:13;;;;;;;4.00;3.80;;;;;;;8.23;100.00;100472.72;6137082;23;20038;-68
2023/01/12 05:04:41;;;;;;;3.90;3.70;;;;;;;8.19;100.00;100472.84;6170073;23;20013;-68
2023/01/12 05:07:08;;;;;;;3.92;3.72;;;;;;;8.19;100.00;100451.94;6134358;23;20032;-67
2023/01/12 05:12:19;;;;;;;3.97;3.72;;;;;;;8.14;100.00;100438.25;6137266;23;20268;-67
2023/01/12 05:14:47;;;;;;;3.63;3.53;;;;;;;8.13;100.00;100428.69;6137708;23;20020;-68
2023/01/12 05:17:13;;;;;;;4.40;4.20;;;;;;;7.98;100.00;100417.19;6143897;23;20033;-68
2023/01/12 05:19:40;;;;;;;4.10;3.90;;;;;;;7.60;100.00;100345.81;6135061;23;20028;-68
2023/01/12 05:22:07;;;;;;;3.90;3.70;;;;;;;8.21;100.00;100430.97;6165198;23;20013;-66
2023/01/12 05:24:34;;;;;;;6.95;4.72;;;;;;;8.07;100.00;100415.06;6115900;23;20384;-67
2023/01/12 05:27:01;;;;;;;4.60;4.30;;;;;;;8.24;100.00;100443.91;6169518;23;20120;-67
2023/01/12 05:29:27;;;;;;;3.90;3.70;;;;;;;8.22;100.00;100445.75;6133838;23;20032;-67
2023/01/12 05:31:54;;;;;;;3.70;3.60;;;;;;;8.16;100.00;100420.72;6131402;23;20152;-70
2023/01/12 05:34:20;;;;;;;3.60;3.50;;;;;;;8.07;100.00;100426.38;6138488;23;20020;-67
2023/01/12 05:36:48;;;;;;;6.47;4.68;;;;;;;8.06;100.00;100408.13;6135514;23;20024;-66
2023/01/12 05:39:14;;;;;;;4.47;3.60;;;;;;;8.02;100.00;100396.13;6169132;23;20360;-68
2023/01/12 05:43:48;;;;;;;3.85;3.60;;;;;;;8.07;100.00;100415.06;6108524;23;20241;-67
2023/01/12 05:44:27;;;;;;;3.80;3.50;;;;;;;7.94;100.00;100394.75;6167122;23;20015;-68
2023/01/12 05:46:53;;;;;;;4.03;3.83;;;;;;;7.98;100.00;100396.28;6141293;23;20388;-70
2023/01/12 05:49:20;;;;;;;3.97;3.80;;;;;;;7.71;100.00;100338.31;6147763;23;20201;-70
2023/01/12 05:51:47;;;;;;;3.47;3.38;;;;;;;7.93;100.00;100369.53;6142025;23;20031;-70
2023/01/12 05:54:13;;;;;;;4.78;4.38;;;;;;;7.92;100.00;100367.00;6145034;23;20557;-69
2023/01/12 05:56:40;;;;;;;3.85;3.67;;;;;;;7.95;100.00;100375.53;6167009;23;20044;-70
2023/01/12 05:59:09;;;;;;;4.22;4.03;;;;;;;7.91;100.00;100368.75;6140922;23;20101;-70
2023/01/12 06:01:37;;;;;;;8.50;3.78;;;;;;;7.84;100.00;100345.56;6170939;23;20030;-70
2023/01/12 06:04:03;;;;;;;6.07;4.47;;;;;;;7.87;100.00;100356.75;6145215;23;20146;-67
2023/01/12 06:06:30;;;;;;;4.20;4.00;;;;;;;7.85;100.00;100366.41;6142284;23;20035;-67
2023/01/12 06:08:57;;;;;;;3.70;3.55;;;;;;;7.86;100.00;100370.75;6169450;23;20024;-67
2023/01/12 06:14:09;;;;;;;4.03;3.85;;;;;;;7.92;100.00;100364.38;6172327;23;20015;-69
2023/01/12 06:16:38;;;;;;;3.72;3.63;;;;;;;7.86;100.00;100367.25;6094288;23;20025;-68
2023/01/12 06:19:05;;;;;;;4.50;4.25;;;;;;;7.80;100.00;100337.06;6169525;23;20215;-68
2023/01/12 06:21:35;;;;;;;3.70;3.60;;;;;;;7.94;100.00;100358.16;6112979;23;20022;-68
2023/01/12 06:24:01;;;;;;;3.80;3.60;;;;;;;7.74;100.00;100335.56;6175382;23;20009;-67
2023/01/12 06:26:28;;;;;;;6.68;3.97;;;;;;;7.65;100.00;100314.25;6091671;23;20029;-70
2023/01/12 06:28:54;;;;;;;3.90;3.70;;;;;;;7.92;100.00;100359.16;6172673;23;20057;-68
2023/01/12 06:31:21;;;;;;;4.00;3.80;;;;;;;7.55;100.00;100312.06;6145434;23;20651;-69
2023/01/12 06:33:48;;;;;;;4.90;4.65;;;;;;;7.53;100.00;100300.84;6171267;23;20037;-69
2023/01/12 06:36:14;;;;;;;8.40;3.97;;;;;;;7.92;100.00;100354.78;6138311;23;20029;-67
2023/01/12 06:38:42;;;;;;;4.13;3.83;;;;;;;7.93;100.00;100343.38;6148347;23;20099;-68
2023/01/12 06:43:56;;;;;;;4.00;3.80;;;;;;;7.95;100.00;100346.78;6127920;23;20024;-68
2023/01/12 06:46:24;;;;;;;4.00;3.80;;;;;;;7.35;100.00;100229.44;6162707;23;20049;-67
2023/01/12 06:48:54;;;;;;;5.55;5.15;;;;;;;7.99;100.00;100334.41;6119255;23;20448;-67
2023/01/12 06:51:21;;;;;;;4.65;4.35;;;;;;;6.84;100.00;100125.72;6166566;23;20028;-67
2023/01/12 06:53:47;;;;;;;4.28;3.97;;;;;;;7.66;100.00;100271.53;6136992;23;20032;-67
2023/01/12 06:56:14;;;;;;;3.90;3.70;;;;;;;8.03;100.00;100329.91;6138959;23;20040;-68
2023/01/12 06:58:41;;;;;;;4.50;4.20;;;;;;;7.51;100.00;100233.94;6165888;23;20021;-67
2023/01/12 07:01:08;;;;;;;3.60;3.50;;;;;;;8.01;100.00;100313.44;6142723;23;20037;-67
2023/01/12 07:03:35;;;;;;;4.40;4.00;;;;;;;7.98;100.00;100302.22;6136782;23;20040;-67
2023/01/12 07:06:02;;;;;;;3.80;3.70;;;;;;;8.10;100.00;100313.03;6170056;23;20250;-67
2023/01/12 07:08:28;;;;;;;3.95;3.75;;;;;;;7.76;100.00;100258.00;6144863;23;20185;-66
2023/01/12 07:11:00;;;;;;;9.80;3.92;;;;;;;8.04;100.00;100282.78;6140958;23;20268;-66
2023/01/12 07:13:26;;;;;;;3.70;3.50;;;;;;;8.14;100.00;100298.88;6140918;23;20681;-66
2023/01/12 07:15:53;;;;;;;3.95;3.75;;;;;;;8.13;100.00;100305.00;6148866;23;20174;-66
2023/01/12 07:18:19;;;;;;;7.57;4.40;;;;;;;8.24;100.00;100300.13;6142791;23;20591;-67
2023/01/12 07:20:47;;;;;;;9.63;4.43;;;;;;;8.08;100.00;100288.69;6170180;23;20721;-67
2023/01/12 07:23:13;;;;;;;4.30;4.10;;;;;;;8.26;100.00;100303.50;6140407;23;20035;-67
2023/01/12 07:25:40;;;;;;;4.78;4.00;;;;;;;8.23;100.00;100292.34;6144972;23;20024;-67
2023/01/12 07:28:07;;;;;;;4.35;3.95;;;;;;;8.24;100.00;100307.97;6146149;23;20017;-66
2023/01/12 07:30:34;;;;;;;3.78;3.58;;;;;;;8.26;100.00;100289.56;6172334;23;20059;-66
2023/01/12 07:33:08;;;;;;;4.10;3.80;;;;;;;8.07;100.00;100263.50;6142294;23;20079;-66
2023/01/12 07:35:34;;;;;;;3.60;3.50;;;;;;;8.24;100.00;100280.94;6135603;23;20407;-67
2023/01/12 07:38:01;;;;;;;3.70;3.60;;;;;;;8.33;100.00;100285.75;6144587;23;20699;-70
2023/01/12 07:40:27;;;;;;;4.30;4.00;;;;;;;8.04;100.00;100246.22;6141563;23;20512;-70
2023/01/12 07:43:01;;;;;;;4.22;4.03;;;;;;;8.44;100.00;100300.91;6141931;23;20329;-70
2023/01/12 07:45:28;;;;;;;3.78;3.53;;;;;;;8.45;100.00;100294.78;6117293;23;20024;-70
2023/01/12 07:47:55;;;;;;;3.70;3.60;;;;;;;8.02;100.00;100214.09;6115458;23;20463;-70
2023/01/12 07:50:23;;;;;;;4.38;4.18;;;;;;;8.45;100.00;100297.41;6150539;23;20215;-70
2023/01/12 07:52:50;;;;;;;4.10;3.90;;;;;;;8.48;100.00;100303.31;6112077;23;20014;-70
2023/01/12 07:55:18;;;;;;;3.90;3.70;;;;;;;7.98;100.00;100228.22;6153939;23;20024;-70
2023/01/12 07:58:02;;;;;;;4.40;4.10;;;;;;;8.55;100.00;100315.16;6137647;23;20029;-70
2023/01/12 08:00:29;;;;;;;4.10;3.90;;;;;;;8.36;100.00;100269.91;6162588;23;20024;-70
2023/01/12 08:03:12;;;;;;;4.57;4.00;;;;;;;8.53;100.00;100295.25;6136873;23;20025;-70
2023/01/12 08:05:39;;;;;;;4.53;4.32;;;;;;;8.56;100.00;100302.94;6134272;23;20424;-70
2023/01/12 08:08:07;;;;;;;4.20;4.00;;;;;;;8.54;100.00;100289.09;6142850;23;20021;-69
2023/01/12 08:10:33;;;;;;;4.40;4.18;;;;;;;8.39;100.00;100275.81;6136289;23;20273;-70
2023/01/12 08:13:00;;;;;;;3.70;3.60;;;;;;;8.60;100.00;100309.72;6137216;23;20019;-70
2023/01/12 08:15:33;;;;;;;4.20;3.90;;;;;;;8.11;100.00;100234.50;6155139;23;20342;-70
2023/01/12 08:18:07;;;;;;;7.90;4.10;;;;;;;8.18;100.00;100240.31;6141748;23;20013;-70
2023/01/12 08:20:35;;;;;;;4.72;4.32;;;;;;;7.37;100.00;100104.91;6156783;23;20025;-70
2023/01/12 08:23:10;;;;;;;4.13;3.92;;;;;;;8.62;100.00;100310.50;6139374;23;20029;-70
2023/01/12 08:25:43;;;;;;;5.75;5.22;;;;;;;8.76;100.00;100322.88;6155508;23;20065;-71
2023/01/12 08:28:15;;;;;;;4.28;4.07;;;;;;;8.45;100.00;100279.09;6135699;23;20035;-70
2023/01/12 08:30:47;;;;;;;4.20;4.00;;;;;;;8.29;100.00;100264.13;6160326;23;20032;-70
2023/01/12 08:33:14;;;;;;;3.90;3.70;;;;;;;8.48;100.00;100282.41;6140774;23;20491;-71
2023/01/12 08:35:42;;;;;;;4.20;4.00;;;;;;;8.65;100.00;100310.31;6166563;23;20013;-71
2023/01/12 08:38:09;;;;;;;5.35;4.88;;;;;;;8.76;100.00;100331.56;6108008;23;20194;-70
2023/01/12 08:46:08;;;;;;;4.40;4.20;;;;;;;8.86;100.00;100331.94;6161058;23;20025;-69
2023/01/12 08:48:38;;;;;;;4.13;3.92;;;;;;;8.86;100.00;100342.41;6132955;23;20021;-69
2023/01/12 08:51:06;;;;;;;4.07;3.88;;;;;;;8.66;100.00;100301.56;6173279;23;20139;-69
2023/01/12 08:53:34;;;;;;;4.18;3.88;;;;;;;8.49;100.00;100273.63;6113625;23;20029;-72
2023/01/12 08:56:00;;;;;;;3.90;3.70;;;;;;;8.91;100.00;100336.94;6165474;23;20360;-69
2023/01/12 08:58:27;;;;;;;4.00;3.80;;;;;;;8.81;100.00;100288.63;6119852;23;20038;-72
2023/01/12 09:00:53;;;;;;;6.07;4.68;;;;;;;8.79;100.00;100302.59;6134075;23;20029;-70
2023/01/12 09:03:22;;;;;;;3.90;3.70;;;;;;;8.73;100.00;100292.47;6134180;23;20191;-70
2023/01/12 09:05:50;;;;;;;4.40;4.20;;;;;;;8.49;100.00;100259.72;6138154;23;20462;-70
2023/01/12 09:08:17;;;;;;;5.00;4.55;;;;;;;8.98;100.00;100318.22;6139983;23;20118;-71
2023/01/12 09:10:43;;;;;;;4.70;4.40;;;;;;;8.73;100.00;100296.84;6160217;23;20510;-69
2023/01/12 09:13:14;;;;;;;4.80;4.60;;;;;;;8.67;100.00;100284.09;6111157;23;20041;-69
2023/01/12 09:15:41;;;;;;;4.40;4.15;;;;;;;9.06;100.00;100340.53;6145895;23;20482;-68
2023/01/12 09:18:19;;;;;;;4.53;4.32;;;;;;;8.85;100.00;100316.31;6149994;23;20471;-70
2023/01/12 09:20:46;;;;;;;4.28;4.07;;;;;;;8.91;100.00;100321.22;6135837;23;20223;-69
2023/01/12 09:23:13;;;;;;;4.43;4.00;;;;;;;9.13;100.00;100353.22;6165545;23;20547;-69
2023/01/12 09:25:39;;;;;;;4.30;4.10;;;;;;;9.07;100.00;100345.69;6133901;23;20236;-69
2023/01/12 09:28:05;;;;;;;4.50;4.10;;;;;;;9.16;100.00;100354.81;6117903;23;20415;-69
2023/01/12 09:30:32;;;;;;;4.70;4.30;;;;;;;8.78;100.00;100282.63;6140726;23;20119;-71
2023/01/12 09:32:58;;;;;;;5.25;4.22;;;;;;;9.04;100.00;100338.00;6143898;23;20098;-70
2023/01/12 09:35:25;;;;;;;4.30;4.07;;;;;;;9.21;100.00;100357.22;6136242;23;20380;-70
2023/01/12 09:37:52;;;;;;;4.50;4.30;;;;;;;8.85;100.00;100298.00;6157804;23;20317;-70
2023/01/12 09:40:19;;;;;;;4.18;3.97;;;;;;;9.27;100.00;100375.22;6128802;23;20006;-70
2023/01/12 09:48:22;;;;;;;4.28;4.07;;;;;;;9.12;100.00;100322.75;6139454;23;20029;-71
2023/01/12 09:51:00;;;;;;;4.40;4.20;;;;;;;9.34;100.00;100355.63;6122704;23;20396;-70
2023/01/12 09:53:31;;;;;;;4.00;3.80;;;;;;;9.47;100.00;100395.97;6113893;23;20096;-70
2023/01/12 09:56:07;;;;;;;4.32;4.03;;;;;;;9.05;100.00;100315.28;6140803;23;20083;-69
2023/01/12 09:58:55;;;;;;;4.35;4.15;;;;;;;9.53;100.00;100374.69;6163103;23;20320;-69
2023/01/12 10:01:22;;;;;;;7.68;4.75;;;;;;;9.06;100.00;100307.38;6122416;23;20014;-70
2023/01/12 10:03:58;;;;;;;4.45;4.25;;;;;;;9.56;100.00;100389.41;6155256;23;20062;-72
2023/01/12 10:06:25;;;;;;;4.30;4.10;;;;;;;9.48;100.00;100375.88;6111264;23;20025;-69
2023/01/12 10:08:54;;;;;;;4.20;4.00;;;;;;;9.65;100.00;100388.09;6112210;23;20017;-70
2023/01/12 10:11:27;;;;;;;4.15;3.95;;;;;;;9.60;100.00;100377.84;6141333;23;20215;-70
2023/01/12 10:14:05;;;;;;;4.30;4.10;;;;;;;9.73;100.00;100399.00;6144266;23;20036;-69
2023/01/12 10:17:00;;;;;;;4.30;4.10;;;;;;;9.76;100.00;100394.44;6179382;23;20271;-71
2023/01/12 10:20:04;;;;;;;4.28;4.07;;;;;;;9.69;100.00;100400.09;6135697;23;20026;-71
2023/01/12 10:22:41;;;;;;;5.05;4.45;;;;;;;9.36;100.00;100351.16;6173760;23;20084;-71
2023/01/12 10:25:31;;;;;;;7.50;4.85;;;;;;;9.74;100.00;100400.69;6134580;23;20648;-70
2023/01/12 10:27:59;;;;;;;4.18;3.97;;;;;;;9.62;100.00;100390.84;6150026;23;20207;-70
2023/01/12 10:30:32;;;;;;;4.50;4.30;;;;;;;9.70;100.00;100394.78;6141933;23;20412;-70
2023/01/12 10:33:10;;;;;;;;;;;;;;;9.73;100.00;100385.91;6149256;23;20028;-70
2023/01/12 10:35:50;;;;;;;4.20;4.00;;;;;;;9.22;100.00;100330.09;6140900;23;20058;-70
2023/01/12 10:38:24;;;;;;;4.40;4.20;;;;;;;9.68;100.00;100401.88;6137852;23;20550;-70
2023/01/12 10:41:11;;;;;;;5.07;4.78;;;;;;;9.74;100.00;100398.06;6140188;23;20033;-70
2023/01/12 10:43:40;;;;;;;4.35;4.15;;;;;;;9.16;100.00;100302.47;6139400;23;20392;-71
2023/01/12 10:46:09;;;;;;;4.40;4.20;;;;;;;9.75;100.00;100394.53;6119126;23;20801;-70
2023/01/12 10:48:44;;;;;;;3.90;3.70;;;;;;;9.66;100.00;100390.63;6140230;23;20025;-71
2023/01/12 10:51:20;;;;;;;4.43;4.22;;;;;;;9.81;100.00;100403.84;6109564;23;20052;-70
2023/01/12 10:53:49;;;;;;;6.13;4.30;;;;;;;8.11;100.00;100118.69;6132218;23;20017;-70
2023/01/12 10:56:24;;;;;;;4.40;4.20;;;;;;;9.88;100.00;100398.19;6140501;23;20053;-70
2023/01/12 10:59:22;;;;;;;4.97;4.78;;;;;;;9.56;100.00;100343.13;6117179;23;20439;-70
2023/01/12 11:02:11;;;;;;;4.53;4.32;;;;;;;9.95;100.00;100407.41;6119965;23;20026;-70
2023/01/12 11:04:51;;;;;;;21.38;11.40;;;;;;;10.03;100.00;100390.41;6159895;23;20020;-70
2023/01/12 11:07:27;;;;;;;25.40;14.93;;;;;;;9.96;100.00;100401.25;6130355;23;20025;-70
2023/01/12 11:09:58;;;;;;;8.60;6.90;;;;;;;9.99;100.00;100403.69;6128804;23;20074;-71
2023/01/12 11:12:39;;;;;;;4.75;4.55;;;;;;;9.55;100.00;100312.59;6125690;23;20025;-70
2023/01/12 11:15:08;;;;;;;6.68;6.18;;;;;;;10.08;100.00;100397.09;6135427;23;20076;-71
2023/01/12 11:17:42;;;;;;;5.93;5.45;;;;;;;10.09;100.00;100411.88;6144830;23;20017;-70
2023/01/12 11:20:14;;;;;;;10.70;8.40;;;;;;;9.36;100.00;100285.69;6134946;23;20013;-70
2023/01/12 11:22:43;;;;;;;6.00;5.60;;;;;;;10.07;100.00;100403.25;6138651;23;20152;-70
2023/01/12 11:25:28;;;;;;;4.70;4.43;;;;;;;9.24;100.00;100271.50;6160431;23;20036;-70
2023/01/12 11:28:05;;;;;;;13.27;9.57;;;;;;;9.88;100.00;100361.50;6130190;23;20096;-70
2023/01/12 11:31:04;;;;;;;5.72;5.22;;;;;;;9.81;100.00;100357.50;6166966;23;20426;-74
2023/01/12 11:33:45;;;;;;;5.47;4.97;;;;;;;10.05;100.00;100405.13;6137292;23;20028;-73
2023/01/12 11:36:40;;;;;;;4.93;4.63;;;;;;;10.09;100.00;100406.66;6164065;23;20127;-74
2023/01/12 11:39:16;;;;;;;5.25;4.85;;;;;;;9.59;100.00;100327.22;6131699;23;20021;-74
2023/01/12 11:44:42;;;;;;;4.30;4.10;;;;;;;9.87;100.00;100356.34;6136518;23;20008;-74
2023/01/12 11:47:14;;;;;;;4.43;4.20;;;;;;;10.11;100.00;100364.63;6126152;23;20362;-75
2023/01/12 11:49:50;;;;;;;4.25;4.05;;;;;;;8.97;100.00;100163.88;6144650;23;20502;-74
2023/01/12 11:52:16;;;;;;;4.95;4.65;;;;;;;9.63;100.00;100299.09;6140468;23;20569;-74
2023/01/12 11:54:43;;;;;;;4.10;3.90;;;;;;;9.38;100.00;100240.19;6135563;23;20027;-75
2023/01/12 11:57:28;;;;;;;4.60;4.40;;;;;;;10.35;100.00;100402.59;6139092;23;20451;-74
2023/01/12 12:00:23;;;;;;;4.63;4.43;;;;;;;9.93;100.00;100314.88;6161408;23;20312;-74
2023/01/12 12:03:37;;;;;;;6.68;6.03;;;;;;;9.93;100.00;100330.63;6116043;23;20032;-74
2023/01/12 12:06:16;;;;;;;4.75;4.47;;;;;;;10.40;100.00;100402.34;6164126;23;20095;-74
2023/01/12 12:09:09;;;;;;;5.10;4.80;;;;;;;10.47;100.00;100405.50;6121659;23;20035;-75
2023/01/12 12:11:45;;;;;;;6.07;5.57;;;;;;;10.45;100.00;100405.56;6169542;23;20041;-74
2023/01/12 12:14:27;;;;;;;5.85;5.28;;;;;;;10.48;100.00;100394.03;6121580;23;20087;-75
2023/01/12 12:17:09;;;;;;;5.47;4.85;;;;;;;10.53;100.00;100397.28;6168500;23;20004;-74
2023/01/12 12:20:00;;;;;;;8.02;5.20;;;;;;;9.68;100.00;100262.13;6138035;23;20121;-75
2023/01/12 12:22:33;;;;;;;5.10;4.80;;;;;;;10.48;100.00;100396.66;6145647;23;20532;-75
2023/01/12 12:25:23;;;;;;;4.40;4.20;;;;;;;10.51;100.00;100405.22;6137301;23;20025;-75
2023/01/12 12:28:16;;;;;;;5.45;4.95;;;;;;;10.40;100.00;100375.28;6129869;23;20012;-75